createdAt,value
2017-10-28T00:01:26.395Z,3.50
2017-10-28T00:03:52.924Z,3.20
2017-10-28T00:06:21.102Z,3.40
2017-10-28T00:08:47.875Z,3.30
2017-10-28T00:11:14.430Z,3.10
2017-10-28T00:13:41.398Z,4.00
2017-10-28T00:16:09.340Z,2.80
2017-10-28T00:18:36.966Z,3.83
2017-10-28T00:21:03.707Z,3.15
2017-10-28T00:23:29.935Z,4.43
2017-10-28T00:25:56.163Z,3.10
2017-10-28T00:28:22.355Z,3.70
2017-10-28T00:30:55.301Z,3.40
2017-10-28T00:33:27.520Z,3.53
2017-10-28T00:36:00.509Z,3.78
2017-10-28T00:38:27.253Z,4.20
2017-10-28T00:40:54.549Z,3.50
2017-10-28T00:43:21.567Z,3.62
2017-10-28T00:45:48.328Z,3.80
2017-10-28T00:48:15.327Z,4.50
2017-10-28T00:50:41.564Z,3.85
2017-10-28T00:53:07.758Z,4.62
2017-10-28T00:55:35.409Z,4.50
2017-10-28T00:58:02.141Z,4.32
2017-10-28T01:00:28.882Z,4.85
2017-10-28T01:02:55.145Z,4.28
2017-10-28T01:05:21.888Z,4.90
2017-10-28T01:07:48.066Z,3.67
2017-10-28T01:10:14.980Z,3.28
2017-10-28T01:12:41.171Z,4.45
2017-10-28T01:15:08.140Z,5.00
2017-10-28T01:17:34.360Z,4.72
2017-10-28T01:20:02.898Z,3.97
2017-10-28T01:22:29.761Z,4.10
2017-10-28T01:24:57.304Z,4.57
2017-10-28T01:27:23.507Z,4.90
2017-10-28T01:29:50.017Z,4.62
2017-10-28T01:32:16.907Z,4.80
2017-10-28T01:34:43.872Z,4.37
2017-10-28T01:37:10.804Z,5.12
2017-10-28T01:39:37.832Z,5.18
2017-10-28T01:42:04.156Z,5.85
2017-10-28T01:44:30.510Z,5.00
2017-10-28T01:46:57.457Z,5.57
2017-10-28T01:49:24.326Z,5.95
2017-10-28T01:51:50.545Z,4.87
2017-10-28T01:54:18.060Z,6.15
2017-10-28T01:56:44.499Z,5.15
2017-10-28T01:59:11.695Z,6.55
2017-10-28T02:01:38.461Z,5.32
2017-10-28T02:04:04.647Z,6.03
2017-10-28T02:06:33.390Z,6.35
2017-10-28T02:09:01.037Z,6.37
2017-10-28T02:11:28.701Z,6.55
2017-10-28T02:13:57.670Z,7.40
2017-10-28T02:16:24.455Z,6.25
2017-10-28T02:18:51.205Z,7.37
2017-10-28T02:21:17.924Z,6.85
2017-10-28T02:23:44.123Z,7.32
2017-10-28T02:26:10.909Z,7.82
2017-10-28T02:28:37.675Z,6.32
2017-10-28T02:31:06.082Z,6.90
2017-10-28T02:33:33.208Z,7.82
2017-10-28T02:36:00.150Z,7.50
2017-10-28T02:38:27.109Z,6.90
2017-10-28T02:40:54.311Z,6.80
2017-10-28T02:43:21.920Z,7.65
2017-10-28T02:45:49.098Z,6.50
2017-10-28T02:48:16.963Z,8.20
2017-10-28T02:50:43.167Z,7.28
2017-10-28T02:53:17.852Z,5.70
2017-10-28T02:55:46.287Z,6.10
2017-10-28T02:58:13.005Z,5.78
2017-10-28T03:00:39.874Z,6.97
2017-10-28T03:03:06.095Z,7.53
2017-10-28T03:05:33.317Z,6.35
2017-10-28T03:08:01.550Z,6.32
2017-10-28T03:10:29.565Z,5.68
2017-10-28T03:12:56.728Z,6.18
2017-10-28T03:15:24.197Z,5.62
2017-10-28T03:17:51.236Z,6.37
2017-10-28T03:20:17.529Z,6.10
2017-10-28T03:22:44.386Z,7.22
2017-10-28T03:25:12.368Z,8.50
2017-10-28T03:27:38.844Z,7.47
2017-10-28T03:30:05.679Z,7.72
2017-10-28T03:32:32.364Z,7.93
2017-10-28T03:35:00.492Z,6.72
2017-10-28T03:37:27.231Z,8.73
2017-10-28T03:39:53.870Z,8.85
2017-10-28T03:42:21.538Z,7.97
2017-10-28T03:44:48.256Z,7.57
2017-10-28T03:47:15.073Z,7.68
2017-10-28T03:49:42.528Z,8.30
2017-10-28T03:52:09.565Z,8.88
2017-10-28T03:54:36.534Z,7.82
2017-10-28T03:57:04.042Z,7.75
2017-10-28T03:59:30.809Z,8.45
2017-10-28T04:01:58.390Z,8.70
2017-10-28T04:04:25.170Z,9.00
2017-10-28T04:06:51.363Z,9.00
2017-10-28T04:09:17.834Z,9.63
2017-10-28T04:11:45.314Z,9.45
2017-10-28T04:14:12.243Z,9.15
2017-10-28T04:16:40.306Z,9.90
2017-10-28T04:19:06.524Z,9.50
2017-10-28T04:21:32.711Z,9.75
2017-10-28T04:23:59.560Z,9.75
2017-10-28T04:26:26.695Z,9.32
2017-10-28T04:28:54.664Z,9.30
2017-10-28T04:31:22.183Z,9.52
2017-10-28T04:33:48.390Z,10.15
2017-10-28T04:36:14.575Z,9.80
2017-10-28T04:38:41.520Z,9.57
2017-10-28T04:41:08.563Z,11.12
2017-10-28T04:43:36.225Z,10.82
2017-10-28T04:46:04.400Z,10.88
2017-10-28T04:48:32.325Z,11.02
2017-10-28T04:50:59.584Z,11.50
2017-10-28T04:53:25.772Z,12.25
2017-10-28T04:55:52.928Z,11.00
2017-10-28T04:58:19.167Z,11.27
2017-10-28T05:00:45.403Z,10.80
2017-10-28T05:03:12.565Z,12.55
2017-10-28T05:05:40.059Z,12.93
2017-10-28T05:08:07.639Z,12.20
2017-10-28T05:10:34.070Z,11.82
2017-10-28T05:13:01.778Z,12.60
2017-10-28T05:15:28.988Z,12.55
2017-10-28T05:17:55.574Z,12.43
2017-10-28T05:20:29.666Z,12.07
2017-10-28T05:22:55.927Z,11.70
2017-10-28T05:25:22.894Z,12.52
2017-10-28T05:27:49.095Z,12.90
2017-10-28T05:30:16.825Z,12.15
2017-10-28T05:32:43.837Z,14.40
2017-10-28T05:35:10.603Z,14.45
2017-10-28T05:37:37.742Z,13.00
2017-10-28T05:40:04.758Z,14.27
2017-10-28T05:42:31.741Z,14.93
2017-10-28T05:44:57.989Z,13.62
2017-10-28T05:47:24.289Z,13.50
2017-10-28T05:49:50.494Z,14.82
2017-10-28T05:52:17.756Z,14.73
2017-10-28T05:54:44.112Z,14.13
2017-10-28T05:57:11.303Z,14.73
2017-10-28T05:59:38.276Z,15.05
2017-10-28T06:02:05.664Z,15.88
2017-10-28T06:04:33.253Z,15.20
2017-10-28T06:07:00.990Z,16.27
2017-10-28T06:09:28.570Z,16.02
2017-10-28T06:11:54.867Z,14.55
2017-10-28T06:14:22.352Z,16.48
2017-10-28T06:16:49.555Z,13.73
2017-10-28T06:19:15.775Z,15.02
2017-10-28T06:21:42.392Z,16.87
2017-10-28T06:24:09.923Z,15.02
2017-10-28T06:26:36.128Z,14.52
2017-10-28T06:29:02.863Z,14.73
2017-10-28T06:31:29.908Z,16.50
2017-10-28T06:33:57.188Z,17.65
2017-10-28T06:36:23.384Z,17.20
2017-10-28T06:38:57.171Z,17.83
2017-10-28T06:41:24.330Z,17.27
2017-10-28T06:43:50.658Z,17.67
2017-10-28T06:46:16.883Z,16.90
2017-10-28T06:48:43.637Z,18.45
2017-10-28T06:51:10.032Z,16.02
2017-10-28T06:53:36.874Z,15.75
2017-10-28T06:56:03.796Z,15.40
2017-10-28T06:58:30.011Z,14.63
2017-10-28T07:00:56.696Z,15.00
2017-10-28T07:03:23.618Z,16.37
2017-10-28T07:05:50.563Z,15.15
2017-10-28T07:08:17.458Z,15.32
2017-10-28T07:10:44.343Z,16.08
2017-10-28T07:13:11.110Z,16.80
2017-10-28T07:15:38.068Z,15.60
2017-10-28T07:18:04.859Z,14.65
2017-10-28T07:20:32.374Z,14.55
2017-10-28T07:22:59.117Z,14.68
2017-10-28T07:25:25.921Z,13.25
2017-10-28T07:27:52.860Z,14.10
2017-10-28T07:30:19.819Z,12.90
2017-10-28T07:32:47.849Z,14.75
2017-10-28T07:35:14.316Z,12.93
2017-10-28T07:37:41.804Z,13.55
2017-10-28T07:40:08.596Z,13.50
2017-10-28T07:42:35.580Z,13.20
2017-10-28T07:45:02.707Z,12.65
2017-10-28T07:47:29.698Z,13.55
2017-10-28T07:49:56.040Z,11.98
2017-10-28T07:52:22.631Z,12.15
2017-10-28T07:54:50.471Z,13.60
2017-10-28T07:57:18.618Z,13.88
2017-10-28T07:59:45.384Z,11.05
2017-10-28T08:02:11.827Z,11.93
2017-10-28T08:04:38.593Z,12.00
2017-10-28T08:07:05.387Z,12.57
2017-10-28T08:09:32.128Z,12.70
2017-10-28T08:11:59.446Z,12.98
2017-10-28T08:14:27.163Z,11.57
2017-10-28T08:16:55.154Z,12.20
2017-10-28T08:19:21.924Z,12.52
2017-10-28T08:21:48.741Z,11.75
2017-10-28T08:24:15.249Z,12.65
2017-10-28T08:26:42.772Z,12.10
2017-10-28T08:29:08.991Z,12.27
2017-10-28T08:31:35.761Z,12.35
2017-10-28T08:34:02.060Z,12.30
2017-10-28T08:36:28.278Z,12.20
2017-10-28T08:38:55.058Z,12.30
2017-10-28T08:41:21.964Z,12.90
2017-10-28T08:43:48.172Z,12.35
2017-10-28T08:46:14.674Z,12.65
2017-10-28T08:48:42.046Z,12.52
2017-10-28T08:51:11.270Z,12.65
2017-10-28T08:53:37.489Z,11.52
2017-10-28T08:56:04.256Z,11.70
2017-10-28T08:58:30.997Z,12.55
2017-10-28T09:00:57.788Z,12.10
2017-10-28T09:03:25.288Z,11.55
2017-10-28T09:05:51.501Z,11.55
2017-10-28T09:08:17.717Z,11.73
2017-10-28T09:10:44.583Z,11.68
2017-10-28T09:13:11.738Z,11.65
2017-10-28T09:15:38.594Z,11.32
2017-10-28T09:18:05.045Z,11.10
2017-10-28T09:20:32.036Z,11.00
2017-10-28T09:22:58.374Z,10.55
2017-10-28T09:25:25.909Z,11.30
2017-10-28T09:27:52.847Z,12.25
2017-10-28T09:30:19.827Z,10.45
2017-10-28T09:32:46.661Z,10.65
2017-10-28T09:35:13.211Z,10.63
2017-10-28T09:37:41.221Z,10.70
2017-10-28T09:40:07.456Z,10.13
2017-10-28T09:42:34.571Z,10.63
2017-10-28T09:45:02.545Z,9.50
2017-10-28T09:47:29.727Z,10.30
2017-10-28T09:49:56.911Z,10.05
2017-10-28T09:52:24.801Z,9.95
2017-10-28T09:54:53.130Z,9.77
2017-10-28T09:57:20.609Z,10.45
2017-10-28T09:59:47.234Z,10.15
2017-10-28T10:02:13.516Z,9.90
2017-10-28T10:04:40.218Z,10.13
2017-10-28T10:07:08.499Z,10.57
2017-10-28T10:09:35.269Z,9.48
2017-10-28T10:12:02.009Z,9.02
2017-10-28T10:14:28.752Z,10.10
2017-10-28T10:16:55.494Z,9.18
2017-10-28T10:19:22.260Z,10.10
2017-10-28T10:21:49.818Z,8.48
2017-10-28T10:24:16.790Z,9.00
2017-10-28T10:26:43.017Z,9.50
2017-10-28T10:29:09.804Z,9.68
2017-10-28T10:31:36.545Z,7.75
2017-10-28T10:34:02.747Z,9.27
2017-10-28T10:36:29.012Z,8.30
2017-10-28T10:38:55.584Z,7.00
2017-10-28T10:41:22.646Z,6.95
2017-10-28T10:43:48.913Z,7.50
2017-10-28T10:46:15.602Z,7.07
2017-10-28T10:48:42.828Z,7.20
2017-10-28T10:51:10.247Z,7.50
2017-10-28T10:53:37.231Z,7.37
2017-10-28T10:56:04.208Z,6.43
2017-10-28T10:58:31.060Z,5.32
2017-10-28T11:00:57.278Z,5.30
2017-10-28T11:03:23.820Z,5.95
2017-10-28T11:05:51.385Z,5.05
2017-10-28T11:08:18.129Z,6.22
2017-10-28T11:10:44.894Z,5.40
2017-10-28T11:13:11.120Z,5.62
2017-10-28T11:15:37.905Z,5.22
2017-10-28T11:18:06.344Z,6.20
2017-10-28T11:20:33.097Z,6.25
2017-10-28T11:22:59.884Z,6.15
2017-10-28T11:25:26.136Z,6.68
2017-10-28T11:27:52.355Z,6.70
2017-10-28T11:30:18.763Z,6.37
2017-10-28T11:32:45.090Z,7.00
2017-10-28T11:35:12.323Z,6.65
2017-10-28T11:37:39.305Z,7.25
2017-10-28T11:40:06.133Z,6.90
2017-10-28T11:42:32.680Z,6.60
2017-10-28T11:45:00.093Z,6.65
2017-10-28T11:47:27.041Z,6.28
2017-10-28T11:49:54.022Z,7.50
2017-10-28T11:52:20.787Z,6.37
2017-10-28T11:54:47.529Z,6.45
2017-10-28T11:57:13.739Z,7.05
2017-10-28T11:59:40.079Z,6.72
2017-10-28T12:02:07.507Z,5.95
2017-10-28T12:04:34.248Z,5.70
2017-10-28T12:07:01.014Z,5.28
2017-10-28T12:12:00.822Z,4.40
2017-10-28T12:14:27.960Z,4.97
2017-10-28T12:16:54.292Z,5.70
2017-10-28T12:19:20.522Z,5.12
2017-10-28T12:21:46.747Z,5.32
2017-10-28T12:24:13.610Z,4.87
2017-10-28T12:26:40.198Z,5.40
2017-10-28T12:29:07.018Z,5.55
2017-10-28T12:31:33.217Z,6.62
2017-10-28T12:33:59.434Z,5.70
2017-10-28T12:36:26.263Z,5.65
2017-10-28T12:38:52.777Z,5.78
2017-10-28T12:41:20.680Z,5.45
2017-10-28T12:43:47.286Z,5.75
2017-10-28T12:46:14.395Z,5.53
2017-10-28T12:48:41.278Z,5.75
2017-10-28T12:51:09.250Z,6.15
2017-10-28T12:53:36.765Z,5.75
2017-10-28T12:56:02.985Z,5.95
2017-10-28T12:58:29.647Z,6.00
2017-10-28T13:00:56.490Z,6.37
2017-10-28T13:03:23.232Z,5.65
2017-10-28T13:05:50.026Z,7.12
2017-10-28T13:08:16.842Z,5.97
2017-10-28T13:10:43.977Z,6.35
2017-10-28T13:13:10.945Z,6.07
2017-10-28T13:15:37.273Z,5.25
2017-10-28T13:18:03.512Z,5.78
2017-10-28T13:20:31.605Z,5.70
2017-10-28T13:22:58.345Z,4.50
2017-10-28T13:25:25.292Z,5.07
2017-10-28T13:27:51.512Z,4.37
2017-10-28T13:30:18.116Z,4.65
2017-10-28T13:32:45.478Z,3.42
2017-10-28T13:35:12.788Z,3.90
2017-10-28T13:37:39.996Z,4.00
2017-10-28T13:40:06.532Z,3.65
2017-10-28T13:42:33.507Z,4.10
2017-10-28T13:44:59.786Z,3.35
2017-10-28T13:47:25.974Z,3.50
2017-10-28T13:49:52.634Z,3.65
2017-10-28T13:52:20.551Z,3.50
2017-10-28T13:54:47.527Z,3.33
2017-10-28T13:57:13.733Z,2.90
2017-10-28T13:59:40.215Z,3.12
2017-10-28T14:02:07.147Z,3.20
2017-10-28T14:04:34.067Z,3.37
2017-10-28T14:07:00.929Z,3.05
2017-10-28T14:09:27.144Z,3.15
2017-10-28T14:11:53.648Z,3.40
2017-10-28T14:14:21.652Z,3.17
2017-10-28T14:16:47.837Z,3.15
2017-10-28T14:19:14.632Z,3.22
2017-10-28T14:21:41.600Z,3.62
2017-10-28T14:24:08.316Z,3.60
2017-10-28T14:26:34.924Z,3.67
2017-10-28T14:29:01.939Z,3.55
2017-10-28T14:31:28.473Z,3.20
2017-10-28T14:33:56.072Z,4.10
2017-10-28T14:36:22.517Z,4.18
2017-10-28T14:38:49.589Z,3.50
2017-10-28T14:41:17.098Z,4.30
2017-10-28T14:43:43.326Z,4.00
2017-10-28T14:46:11.279Z,3.95
2017-10-28T14:48:38.046Z,3.40
2017-10-28T14:51:04.792Z,3.40
2017-10-28T14:53:31.751Z,3.78
2017-10-28T14:55:57.958Z,4.60
2017-10-28T14:58:24.520Z,4.15
2017-10-28T15:00:51.471Z,4.20
2017-10-28T15:03:18.688Z,4.50
2017-10-28T15:05:45.616Z,4.37
2017-10-28T15:08:11.827Z,4.03
2017-10-28T15:10:39.195Z,4.15
2017-10-28T15:13:06.015Z,4.43
2017-10-28T15:15:32.788Z,4.00
2017-10-28T15:17:58.976Z,4.20
2017-10-28T15:20:25.726Z,3.53
2017-10-28T15:22:52.444Z,4.35
2017-10-28T15:25:19.383Z,4.25
2017-10-28T15:27:46.324Z,4.70
2017-10-28T15:30:13.938Z,4.32
2017-10-28T15:32:40.678Z,4.47
2017-10-28T15:35:07.424Z,4.50
2017-10-28T15:37:34.196Z,4.37
2017-10-28T15:40:00.489Z,4.55
2017-10-28T15:42:26.688Z,6.05
2017-10-28T15:44:53.515Z,4.45
2017-10-28T15:47:20.257Z,5.30
2017-10-28T15:49:47.499Z,4.85
2017-10-28T15:52:14.990Z,5.30
2017-10-28T15:54:41.199Z,4.97
2017-10-28T15:57:07.408Z,5.30
2017-10-28T15:59:34.969Z,5.57
2017-10-28T16:02:01.928Z,6.50
2017-10-28T16:04:29.158Z,5.78
2017-10-28T16:06:56.670Z,6.15
2017-10-28T16:09:23.437Z,5.18
2017-10-28T16:11:49.848Z,4.53
2017-10-28T16:14:17.349Z,4.35
2017-10-28T16:16:44.144Z,4.65
2017-10-28T16:19:10.353Z,4.68
2017-10-28T16:21:36.563Z,4.70
2017-10-28T16:24:03.099Z,3.95
2017-10-28T16:26:30.169Z,4.07
2017-10-28T16:28:56.402Z,3.83
2017-10-28T16:31:23.207Z,4.03
2017-10-28T16:33:49.881Z,3.87
2017-10-28T16:36:16.946Z,5.32
2017-10-28T16:38:43.593Z,4.85
2017-10-28T16:41:11.156Z,3.97
2017-10-28T16:43:37.379Z,3.60
2017-10-28T16:46:03.673Z,4.12
2017-10-28T16:48:30.414Z,4.15
2017-10-28T16:50:57.089Z,4.00
2017-10-28T16:53:24.044Z,3.95
2017-10-28T16:55:51.079Z,3.72
2017-10-28T16:58:17.480Z,3.90
2017-10-28T17:00:44.546Z,4.25
2017-10-28T17:03:10.813Z,4.18
2017-10-28T17:05:37.482Z,4.32
2017-10-28T17:08:04.527Z,4.10
2017-10-28T17:10:30.728Z,3.72
2017-10-28T17:12:57.963Z,4.82
2017-10-28T17:15:25.171Z,13.50
2017-10-28T17:17:51.549Z,70.65
2017-10-28T17:20:18.410Z,20.30
2017-10-28T17:22:45.976Z,6.03
2017-10-28T17:25:12.592Z,17.65
2017-10-28T17:27:39.999Z,8.05
2017-10-28T17:30:07.829Z,5.30
2017-10-28T17:32:34.859Z,7.87
2017-10-28T17:35:03.419Z,4.20
2017-10-28T17:37:29.620Z,5.35
2017-10-28T17:39:56.522Z,5.50
2017-10-28T17:42:23.504Z,14.85
2017-10-28T17:44:49.891Z,4.87
2017-10-28T17:47:18.497Z,8.75
2017-10-28T17:49:45.011Z,5.60
2017-10-28T17:52:12.344Z,8.95
2017-10-28T17:54:39.725Z,4.55
2017-10-28T17:57:07.288Z,4.47
2017-10-28T17:59:33.840Z,4.35
2017-10-28T18:02:01.098Z,4.45
2017-10-28T18:04:28.668Z,15.57
2017-10-28T18:06:55.352Z,9.20
2017-10-28T18:09:21.572Z,12.23
2017-10-28T18:11:48.444Z,6.60
2017-10-28T18:14:16.137Z,10.82
2017-10-28T18:16:43.420Z,5.30
2017-10-28T18:19:10.469Z,8.25
2017-10-28T18:21:37.348Z,7.12
2017-10-28T18:24:03.631Z,7.15
2017-10-28T18:26:30.722Z,4.70
2017-10-28T18:28:58.313Z,6.85
2017-10-28T18:31:40.431Z,5.03
2017-10-28T18:34:07.299Z,6.75
2017-10-28T18:36:38.171Z,5.60
2017-10-28T18:39:11.595Z,4.65
2017-10-28T18:41:37.827Z,5.10
2017-10-28T18:44:04.715Z,4.60
2017-10-28T18:46:30.898Z,4.50
2017-10-28T18:48:57.752Z,6.20
2017-10-28T18:51:24.519Z,4.65
2017-10-28T18:53:50.721Z,5.15
2017-10-28T18:56:17.838Z,4.28
2017-10-28T18:58:44.912Z,4.45
2017-10-28T19:01:12.902Z,4.50
2017-10-28T19:03:47.957Z,9.27
2017-10-28T19:06:14.950Z,22.85
2017-10-28T19:08:42.657Z,20.35
2017-10-28T19:11:09.380Z,6.20
2017-10-28T19:13:36.557Z,4.87
2017-10-28T19:16:03.942Z,4.40
2017-10-28T19:18:30.968Z,4.80
2017-10-28T19:20:58.501Z,4.62
2017-10-28T19:23:26.075Z,4.85
2017-10-28T19:25:53.597Z,4.57
2017-10-28T19:28:20.871Z,5.03
2017-10-28T19:30:47.831Z,4.43
2017-10-28T19:33:14.583Z,4.65
2017-10-28T19:35:41.555Z,4.95
2017-10-28T19:38:07.787Z,3.78
2017-10-28T19:40:34.739Z,4.85
2017-10-28T19:43:00.939Z,4.03
2017-10-28T19:45:27.808Z,5.80
2017-10-28T19:47:54.538Z,11.07
2017-10-28T19:50:21.251Z,5.15
2017-10-28T19:52:48.095Z,4.68
2017-10-28T19:55:15.590Z,4.37
2017-10-28T19:57:41.855Z,5.10
2017-10-28T20:00:08.170Z,4.60
2017-10-28T20:02:35.040Z,4.22
2017-10-28T20:05:04.107Z,3.90
2017-10-28T20:07:30.785Z,4.80
2017-10-28T20:09:57.856Z,4.10
2017-10-28T20:12:24.144Z,4.75
2017-10-28T20:14:51.185Z,4.37
2017-10-28T20:17:18.191Z,4.50
2017-10-28T20:19:45.043Z,4.90
2017-10-28T20:22:11.246Z,4.90
2017-10-28T20:24:39.018Z,5.53
2017-10-28T20:27:05.443Z,4.50
2017-10-28T20:29:32.303Z,4.18
2017-10-28T20:31:59.745Z,5.15
2017-10-28T20:34:26.887Z,4.53
2017-10-28T20:36:53.156Z,4.80
2017-10-28T20:39:19.918Z,4.18
2017-10-28T20:41:46.688Z,4.10
2017-10-28T20:44:13.362Z,3.87
2017-10-28T20:46:41.056Z,4.85
2017-10-28T20:49:07.259Z,4.90
2017-10-28T20:51:34.057Z,4.57
2017-10-28T20:54:00.255Z,6.20
2017-10-28T20:56:27.466Z,4.40
2017-10-28T20:58:54.183Z,4.47
2017-10-28T21:01:21.140Z,4.10
2017-10-28T21:03:48.493Z,5.35
2017-10-28T21:06:14.916Z,4.20
2017-10-28T21:08:41.129Z,4.78
2017-10-28T21:11:08.421Z,4.62
2017-10-28T21:13:35.213Z,4.30
2017-10-28T21:16:02.347Z,4.78
2017-10-28T21:18:30.270Z,4.62
2017-10-28T21:20:56.482Z,4.40
2017-10-28T21:23:23.207Z,5.00
2017-10-28T21:25:49.948Z,4.55
2017-10-28T21:28:16.589Z,4.82
2017-10-28T21:30:43.622Z,4.30
2017-10-28T21:33:10.555Z,5.20
2017-10-28T21:35:37.482Z,5.47
2017-10-28T21:38:03.844Z,5.00
2017-10-28T21:40:31.701Z,5.25
2017-10-28T21:42:59.627Z,5.20
2017-10-28T21:45:26.809Z,5.05
2017-10-28T21:47:53.751Z,5.85
2017-10-28T21:50:19.983Z,4.87
2017-10-28T21:52:46.909Z,5.12
2017-10-28T21:55:14.654Z,5.28
2017-10-28T21:57:42.337Z,5.57
2017-10-28T22:00:09.180Z,6.75
2017-10-28T22:02:36.355Z,4.18
2017-10-28T22:05:03.312Z,3.95
2017-10-28T22:07:29.503Z,5.70
2017-10-28T22:09:56.729Z,6.37
2017-10-28T22:12:24.322Z,6.75
2017-10-28T22:14:51.181Z,4.85
2017-10-28T22:17:18.363Z,5.00
2017-10-28T22:19:44.710Z,6.30
2017-10-28T22:22:11.813Z,5.68
2017-10-28T22:24:39.384Z,6.87
2017-10-28T22:27:06.152Z,6.80
2017-10-28T22:29:33.368Z,7.25
2017-10-28T22:32:00.055Z,6.20
2017-10-28T22:34:27.721Z,8.55
2017-10-28T22:36:54.520Z,8.40
2017-10-28T22:39:21.050Z,8.45
2017-10-28T22:41:48.091Z,5.95
2017-10-28T22:44:14.331Z,6.07
2017-10-28T22:46:41.189Z,5.18
2017-10-28T22:49:07.739Z,7.55
2017-10-28T22:51:37.699Z,6.32
2017-10-28T22:54:05.190Z,5.57
2017-10-28T22:56:32.245Z,6.40
2017-10-28T22:58:59.416Z,7.15
2017-10-28T23:01:27.016Z,8.00
2017-10-28T23:03:53.950Z,6.93
2017-10-28T23:06:21.722Z,7.55
2017-10-28T23:08:48.679Z,6.55
2017-10-28T23:11:15.844Z,6.47
2017-10-28T23:13:43.003Z,5.15
2017-10-28T23:16:09.794Z,5.43
2017-10-28T23:18:35.972Z,5.75
2017-10-28T23:21:02.171Z,5.62
2017-10-28T23:23:29.123Z,6.22
2017-10-28T23:25:55.886Z,5.12
2017-10-28T23:28:22.653Z,4.47
2017-10-28T23:30:48.836Z,5.00
2017-10-28T23:33:15.667Z,5.28
2017-10-28T23:35:41.867Z,5.72
2017-10-28T23:38:08.104Z,5.62
2017-10-28T23:40:34.282Z,5.80
2017-10-28T23:43:00.489Z,5.05
2017-10-28T23:45:27.648Z,3.55
2017-10-28T23:47:54.391Z,4.15
2017-10-28T23:50:21.339Z,4.47
2017-10-28T23:52:48.867Z,5.25
2017-10-28T23:55:15.215Z,3.47
2017-10-28T23:57:42.911Z,5.18
